SAVY/PMY METAR and TAF weather

Enter ICAO airport designator
Station Type Date Time Source
SAVY METAR 2021/09/09 12:25 UTC NOAA

SAVY 091225Z 36005KT 5000 BR BKN005 09/08 Q1020


Station Type Date Time Source
SAVY Decoded METAR 2021/09/09 12:25 UTC NOAA

Puerto Madryn, CHT, Argentina (SAVY) 42-45-33S 065-06-10W
Sep 09, 2021 - 08:25 AM EDT / 2021.09.09 1225 UTC
Wind: from the N (360 degrees) at 6 MPH (5 KT):0
Visibility: 3 mile(s):0
Sky conditions: mostly cloudy
Weather: mist
Temperature: 48 F (9 C)
Dew Point: 46 F (8 C)
Relative Humidity: 93%
Pressure (altimeter): 30.12 in. Hg (1020 hPa)
ob: SAVY 091225Z 36005KT 5000 BR BKN005 09/08 Q1020
cycle: 12

Station Type Date Time Source
SAVY TAF UTC NOAA

Error!

Example: see airport list